createdAt,value
2019-02-12T00:01:38.335Z,99.90
2019-02-12T00:04:08.390Z,99.90
2019-02-12T00:06:38.608Z,99.90
2019-02-12T00:09:10.196Z,99.90
2019-02-12T00:11:40.385Z,99.90
2019-02-12T00:14:10.694Z,99.90
2019-02-12T00:16:40.758Z,99.90
2019-02-12T00:19:10.922Z,99.90
2019-02-12T00:21:41.046Z,99.90
2019-02-12T00:24:11.216Z,99.90
2019-02-12T00:26:41.582Z,99.90
2019-02-12T00:29:12.795Z,99.90
2019-02-12T00:31:43.834Z,99.90
2019-02-12T00:34:14.867Z,99.90
2019-02-12T00:36:45.142Z,99.90
2019-02-12T00:39:15.236Z,99.90
2019-02-12T00:41:45.350Z,99.90
2019-02-12T00:44:15.631Z,99.90
2019-02-12T00:46:45.773Z,99.90
2019-02-12T00:49:15.969Z,99.90
2019-02-12T00:51:46.277Z,99.90
2019-02-12T00:54:16.546Z,99.90
2019-02-12T00:56:46.771Z,99.90
2019-02-12T00:59:16.881Z,99.90
2019-02-12T01:01:47.068Z,99.90
2019-02-12T01:04:17.265Z,99.90
2019-02-12T01:06:48.323Z,99.90
2019-02-12T01:09:18.462Z,99.90
2019-02-12T01:11:48.565Z,99.90
2019-02-12T01:14:18.622Z,99.90
2019-02-12T01:16:48.665Z,99.90
2019-02-12T01:19:18.878Z,99.90
2019-02-12T01:21:48.961Z,99.90
2019-02-12T01:24:19.099Z,99.90
2019-02-12T01:26:49.212Z,99.90
2019-02-12T01:29:19.432Z,99.90
2019-02-12T01:31:49.693Z,99.90
2019-02-12T01:34:20.906Z,99.90
2019-02-12T01:36:51.084Z,99.90
2019-02-12T01:39:21.470Z,99.90
2019-02-12T01:41:51.712Z,99.90
2019-02-12T01:44:21.881Z,99.90
2019-02-12T01:46:52.109Z,99.90
2019-02-12T01:49:22.213Z,99.90
2019-02-12T01:51:52.253Z,99.90
2019-02-12T01:54:22.389Z,99.90
2019-02-12T01:56:52.592Z,99.90
2019-02-12T01:59:22.747Z,99.90
2019-02-12T02:01:52.974Z,99.90
2019-02-12T02:04:23.015Z,99.90
2019-02-12T02:06:53.370Z,99.90
2019-02-12T02:09:23.537Z,99.90
2019-02-12T02:11:53.645Z,99.90
2019-02-12T02:14:23.801Z,99.90
2019-02-12T02:16:53.989Z,99.90
2019-02-12T02:19:24.177Z,99.90
2019-02-12T02:21:54.460Z,99.90
2019-02-12T02:24:24.719Z,99.90
2019-02-12T02:26:54.934Z,99.90
2019-02-12T02:29:25.095Z,99.90
2019-02-12T02:31:55.135Z,99.90
2019-02-12T02:34:25.275Z,99.90
2019-02-12T02:36:55.399Z,99.90
2019-02-12T02:39:25.480Z,99.90
2019-02-12T02:41:55.590Z,99.90
2019-02-12T02:44:25.623Z,99.90
2019-02-12T02:46:55.762Z,99.90
2019-02-12T02:49:25.802Z,99.90
2019-02-12T02:51:55.930Z,99.90
2019-02-12T02:54:26.074Z,99.90
2019-02-12T02:57:02.727Z,99.90
2019-02-12T02:59:34.660Z,99.90
2019-02-12T03:02:05.789Z,99.90
2019-02-12T03:04:36.101Z,99.90
2019-02-12T03:07:06.266Z,99.90
2019-02-12T03:09:36.357Z,99.90
2019-02-12T03:12:06.502Z,99.90
2019-02-12T03:14:36.722Z,99.90
2019-02-12T03:17:06.933Z,99.90
2019-02-12T03:19:37.111Z,99.90
2019-02-12T03:22:07.650Z,99.90
2019-02-12T03:24:37.707Z,99.90
2019-02-12T03:27:07.970Z,99.90
2019-02-12T03:29:38.149Z,99.90
2019-02-12T03:32:08.279Z,99.90
2019-02-12T03:34:38.401Z,99.90
2019-02-12T03:37:08.458Z,99.90
2019-02-12T03:39:38.637Z,99.90
2019-02-12T03:42:08.758Z,99.90
2019-02-12T03:44:38.838Z,99.90
2019-02-12T03:47:09.179Z,99.90
2019-02-12T03:49:39.334Z,99.90
2019-02-12T03:52:12.819Z,99.90
2019-02-12T03:54:41.734Z,99.90
2019-02-12T03:57:11.885Z,99.90
2019-02-12T03:59:42.021Z,99.90
2019-02-12T04:02:12.278Z,99.90
2019-02-12T04:04:42.562Z,99.20
2019-02-12T04:07:12.817Z,98.90
2019-02-12T04:09:43.023Z,98.80
2019-02-12T04:12:14.215Z,97.80
2019-02-12T04:14:44.393Z,98.20
2019-02-12T04:17:14.489Z,98.50
2019-02-12T04:19:44.632Z,98.80
2019-02-12T04:22:22.304Z,99.00
2019-02-12T04:24:46.635Z,99.20
2019-02-12T04:27:17.102Z,99.40
2019-02-12T04:29:47.286Z,98.80
2019-02-12T04:32:17.452Z,98.90
2019-02-12T04:34:47.714Z,98.80
2019-02-12T04:37:18.039Z,98.60
2019-02-12T04:39:48.322Z,98.90
2019-02-12T04:42:18.462Z,98.80
2019-02-12T04:44:48.582Z,99.10
2019-02-12T04:47:18.730Z,99.20
2019-02-12T04:49:48.811Z,99.20
2019-02-12T04:52:18.911Z,99.50
2019-02-12T04:54:49.260Z,99.20
2019-02-12T04:57:19.603Z,99.50
2019-02-12T04:59:49.742Z,99.50
2019-02-12T05:02:19.992Z,99.50
2019-02-12T05:04:50.206Z,99.60
2019-02-12T05:07:20.257Z,99.90
2019-02-12T05:09:52.674Z,99.90
2019-02-12T05:12:24.367Z,99.90
2019-02-12T05:14:54.572Z,99.90
2019-02-12T05:17:24.691Z,99.90
2019-02-12T05:19:54.894Z,99.90
2019-02-12T05:22:25.214Z,99.90
2019-02-12T05:24:55.354Z,99.90
2019-02-12T05:27:25.430Z,99.90
2019-02-12T05:29:55.876Z,99.90
2019-02-12T05:32:26.138Z,99.40
2019-02-12T05:34:56.267Z,99.90
2019-02-12T05:37:26.396Z,99.70
2019-02-12T05:39:56.557Z,99.50
2019-02-12T05:42:26.766Z,99.70
2019-02-12T05:44:57.023Z,99.60
2019-02-12T05:47:27.242Z,99.20
2019-02-12T05:49:57.578Z,99.50
2019-02-12T05:52:27.765Z,99.20
2019-02-12T05:54:57.909Z,99.40
2019-02-12T05:57:28.103Z,99.40
2019-02-12T05:59:58.382Z,99.20
2019-02-12T06:02:28.578Z,99.00
2019-02-12T06:04:58.897Z,99.20
2019-02-12T06:07:29.012Z,98.90
2019-02-12T06:09:59.055Z,98.90
2019-02-12T06:12:29.202Z,98.90
2019-02-12T06:14:59.407Z,99.20
2019-02-12T06:17:46.119Z,99.20
2019-02-12T06:20:16.406Z,99.30
2019-02-12T06:22:46.453Z,99.00
2019-02-12T06:25:16.622Z,99.00
2019-02-12T06:27:46.815Z,99.10
2019-02-12T06:30:16.903Z,99.00
2019-02-12T06:32:47.216Z,99.00
2019-02-12T06:35:17.335Z,99.10
2019-02-12T06:37:47.579Z,99.40
2019-02-12T06:40:18.834Z,99.00
2019-02-12T06:42:49.043Z,98.60
2019-02-12T06:45:19.254Z,98.90
2019-02-12T06:47:49.585Z,98.80
2019-02-12T06:50:19.679Z,98.60
2019-02-12T06:52:49.757Z,98.60
2019-02-12T06:55:19.873Z,98.80
2019-02-12T06:57:50.229Z,98.70
2019-02-12T07:00:20.445Z,98.60
2019-02-12T07:03:09.390Z,98.60
2019-02-12T07:05:41.323Z,98.50
2019-02-12T07:08:35.874Z,98.50
2019-02-12T07:11:45.338Z,98.10
2019-02-12T07:14:29.229Z,98.00
2019-02-12T07:17:21.938Z,98.10
2019-02-12T07:20:06.477Z,98.10
2019-02-12T07:23:35.853Z,98.10
2019-02-12T07:26:23.770Z,98.10
2019-02-12T07:29:27.689Z,97.80
2019-02-12T07:32:27.170Z,97.90
2019-02-12T07:35:23.470Z,98.10
2019-02-12T07:38:07.949Z,97.30
2019-02-12T07:41:31.081Z,97.40
2019-02-12T07:44:23.890Z,96.70
2019-02-12T07:47:11.241Z,96.10
2019-02-12T07:50:22.507Z,95.60
2019-02-12T07:53:30.979Z,95.80
2019-02-12T07:56:40.691Z,94.90
2019-02-12T07:59:33.698Z,94.30
2019-02-12T08:02:40.265Z,93.60
2019-02-12T08:05:46.287Z,93.80
2019-02-12T08:09:06.123Z,93.40
2019-02-12T08:12:11.618Z,93.90
2019-02-12T08:15:11.947Z,93.30
2019-02-12T08:18:38.024Z,94.20
2019-02-12T08:21:22.857Z,93.70
2019-02-12T08:24:52.241Z,93.90
2019-02-12T08:28:18.515Z,94.10
2019-02-12T08:31:05.426Z,93.50
2019-02-12T08:34:28.158Z,93.60
2019-02-12T08:37:35.739Z,93.40
2019-02-12T08:40:44.522Z,93.70
2019-02-12T08:44:00.741Z,93.50
2019-02-12T08:47:23.898Z,93.20
2019-02-12T08:50:24.240Z,93.00
2019-02-12T08:53:24.814Z,92.20
2019-02-12T08:56:36.818Z,91.60
2019-02-12T08:59:46.924Z,91.80
2019-02-12T09:03:01.385Z,91.60
2019-02-12T09:06:03.925Z,91.40
2019-02-12T09:09:39.309Z,91.00
2019-02-12T09:12:52.069Z,91.50
2019-02-12T09:16:16.170Z,91.30
2019-02-12T09:19:14.761Z,91.30
2019-02-12T09:22:34.186Z,91.40
2019-02-12T09:25:31.639Z,91.80
2019-02-12T09:28:43.928Z,92.00
2019-02-12T09:31:47.644Z,91.60
2019-02-12T09:34:51.574Z,92.00
2019-02-12T09:37:54.178Z,91.50
2019-02-12T09:41:26.817Z,91.20
2019-02-12T09:44:35.202Z,91.20
2019-02-12T09:47:27.533Z,92.10
2019-02-12T09:51:03.052Z,91.30
2019-02-12T09:54:12.829Z,91.30
2019-02-12T09:57:30.034Z,91.40
2019-02-12T10:00:17.908Z,91.10
2019-02-12T10:03:32.106Z,91.60
2019-02-12T10:06:29.975Z,92.10
2019-02-12T10:09:29.383Z,91.60
2019-02-12T10:12:44.821Z,91.20
2019-02-12T10:15:39.542Z,91.30
2019-02-12T10:18:55.768Z,91.50
2019-02-12T10:21:46.636Z,90.90
2019-02-12T10:24:40.202Z,90.80
2019-02-12T10:28:00.377Z,91.10
2019-02-12T10:30:58.532Z,91.10
2019-02-12T10:33:28.870Z,90.50
2019-02-12T10:35:58.992Z,90.30
2019-02-12T10:38:29.092Z,90.40
2019-02-12T10:40:59.165Z,90.20
2019-02-12T10:43:29.238Z,89.80
2019-02-12T10:45:59.754Z,90.20
2019-02-12T10:48:30.022Z,90.00
2019-02-12T10:51:00.257Z,90.50
2019-02-12T10:53:30.618Z,90.50
2019-02-12T10:56:00.678Z,90.50
2019-02-12T10:58:30.868Z,90.60
2019-02-12T11:01:01.031Z,91.30
2019-02-12T11:03:32.754Z,91.20
2019-02-12T11:06:02.970Z,91.40
2019-02-12T11:08:33.118Z,91.80
2019-02-12T11:11:03.439Z,91.70
2019-02-12T11:13:33.833Z,92.10
2019-02-12T11:16:03.966Z,92.00
2019-02-12T11:18:34.173Z,91.90
2019-02-12T11:21:11.634Z,91.90
2019-02-12T11:23:37.259Z,92.00
2019-02-12T11:26:07.389Z,91.90
2019-02-12T11:28:37.522Z,92.00
2019-02-12T11:31:07.660Z,92.20
2019-02-12T11:33:37.878Z,92.40
2019-02-12T11:36:08.041Z,92.70
2019-02-12T11:38:38.092Z,92.60
2019-02-12T11:41:08.288Z,92.70
2019-02-12T11:43:52.642Z,92.90
2019-02-12T11:46:22.689Z,92.70
2019-02-12T11:48:52.889Z,92.90
2019-02-12T11:51:23.037Z,92.70
2019-02-12T11:53:53.237Z,92.20
2019-02-12T11:56:23.438Z,92.30
2019-02-12T11:58:53.617Z,92.30
2019-02-12T12:01:26.802Z,92.60
2019-02-12T12:03:56.937Z,92.40
2019-02-12T12:06:27.020Z,92.70
2019-02-12T12:08:57.233Z,92.60
2019-02-12T12:11:28.364Z,92.80
2019-02-12T12:13:58.653Z,92.70
2019-02-12T12:16:28.759Z,93.20
2019-02-12T12:18:59.118Z,93.20
2019-02-12T12:21:29.310Z,93.20
2019-02-12T12:23:59.387Z,93.20
2019-02-12T12:26:29.545Z,92.70
2019-02-12T12:29:00.618Z,92.60
2019-02-12T12:31:30.841Z,92.90
2019-02-12T12:34:01.098Z,92.70
2019-02-12T12:36:31.266Z,92.90
2019-02-12T12:39:01.338Z,92.90
2019-02-12T12:41:33.125Z,92.70
2019-02-12T12:44:03.456Z,92.70
2019-02-12T12:46:33.664Z,92.80
2019-02-12T12:49:03.883Z,92.80
2019-02-12T12:51:34.064Z,92.60
2019-02-12T12:54:04.141Z,92.50
2019-02-12T12:56:34.273Z,92.40
2019-02-12T12:59:04.634Z,92.20
2019-02-12T13:01:34.871Z,92.20
2019-02-12T13:04:05.010Z,92.50
2019-02-12T13:06:35.239Z,92.70
2019-02-12T13:09:07.106Z,92.50
2019-02-12T13:11:37.698Z,92.50
2019-02-12T13:14:08.014Z,92.40
2019-02-12T13:16:38.090Z,92.30
2019-02-12T13:19:08.931Z,92.50
2019-02-12T13:21:39.030Z,92.20
2019-02-12T13:24:09.230Z,92.20
2019-02-12T13:26:39.365Z,92.50
2019-02-12T13:29:09.601Z,92.30
2019-02-12T13:31:39.724Z,92.30
2019-02-12T13:34:10.250Z,92.50
2019-02-12T13:36:40.360Z,92.70
2019-02-12T13:39:10.515Z,92.90
2019-02-12T13:41:40.874Z,92.50
2019-02-12T13:44:11.358Z,92.70
2019-02-12T13:46:41.496Z,92.80
2019-02-12T13:49:11.622Z,92.80
2019-02-12T13:51:41.803Z,92.70
2019-02-12T13:54:11.886Z,92.60
2019-02-12T13:56:42.174Z,92.70
2019-02-12T13:59:12.234Z,92.70
2019-02-12T14:01:42.396Z,92.40
2019-02-12T14:04:13.036Z,92.60
2019-02-12T14:06:43.247Z,92.80
2019-02-12T14:09:13.361Z,92.70
2019-02-12T14:11:43.566Z,92.40
2019-02-12T14:14:13.683Z,92.50
2019-02-12T14:16:43.797Z,92.50
2019-02-12T14:19:14.115Z,92.40
2019-02-12T14:21:44.330Z,92.10
2019-02-12T14:24:14.481Z,92.20
2019-02-12T14:26:44.727Z,92.40
2019-02-12T14:29:14.919Z,92.70
2019-02-12T14:31:52.855Z,92.10
2019-02-12T14:34:16.819Z,92.00
2019-02-12T14:36:47.067Z,92.30
2019-02-12T14:39:17.242Z,92.40
2019-02-12T14:41:47.444Z,92.40
2019-02-12T14:44:17.703Z,92.70
2019-02-12T14:46:47.957Z,92.50
2019-02-12T14:49:18.225Z,92.50
2019-02-12T14:51:48.449Z,92.40
2019-02-12T14:54:18.630Z,92.50
2019-02-12T14:56:48.837Z,92.40
2019-02-12T14:59:19.243Z,91.90
2019-02-12T15:01:49.595Z,91.50
2019-02-12T15:04:19.661Z,91.80
2019-02-12T15:06:49.840Z,92.00
2019-02-12T15:09:20.114Z,92.00
2019-02-12T15:11:50.368Z,92.10
2019-02-12T15:14:20.565Z,92.40
2019-02-12T15:16:50.912Z,92.30
2019-02-12T15:19:21.062Z,92.40
2019-02-12T15:21:51.174Z,92.40
2019-02-12T15:24:21.242Z,92.70
2019-02-12T15:26:51.462Z,92.90
2019-02-12T15:29:21.939Z,92.90
2019-02-12T15:31:52.142Z,92.90
2019-02-12T15:34:22.588Z,93.00
2019-02-12T15:36:52.864Z,92.90
2019-02-12T15:39:23.090Z,93.10
2019-02-12T15:41:53.279Z,93.00
2019-02-12T15:44:23.584Z,93.20
2019-02-12T15:46:53.770Z,93.30
2019-02-12T15:49:23.972Z,93.30
2019-02-12T15:51:54.069Z,93.40
2019-02-12T15:54:24.230Z,93.50
2019-02-12T15:56:54.290Z,93.20
2019-02-12T15:59:24.633Z,93.20
2019-02-12T16:01:54.766Z,93.50
2019-02-12T16:04:30.393Z,93.10
2019-02-12T16:07:01.979Z,93.00
2019-02-12T16:09:33.198Z,93.00
2019-02-12T16:12:06.026Z,93.00
2019-02-12T16:14:36.426Z,93.00
2019-02-12T16:17:06.599Z,93.20
2019-02-12T16:19:36.832Z,93.20
2019-02-12T16:22:07.133Z,93.70
2019-02-12T16:24:37.422Z,93.60
2019-02-12T16:27:07.826Z,93.70
2019-02-12T16:29:37.907Z,93.90
2019-02-12T16:32:08.292Z,94.00
2019-02-12T16:34:38.446Z,93.80
2019-02-12T16:37:08.854Z,93.90
2019-02-12T16:39:39.205Z,94.00
2019-02-12T16:42:09.319Z,93.80
2019-02-12T16:44:39.472Z,94.00
2019-02-12T16:47:09.899Z,94.00
2019-02-12T16:49:40.247Z,94.00
2019-02-12T16:52:10.467Z,94.20
2019-02-12T16:54:40.608Z,94.20
2019-02-12T16:57:10.930Z,93.70
2019-02-12T16:59:41.157Z,93.40
2019-02-12T17:02:11.357Z,93.60
2019-02-12T17:04:41.593Z,93.40
2019-02-12T17:07:11.725Z,93.80
2019-02-12T17:09:41.926Z,94.00
2019-02-12T17:12:12.198Z,94.20
2019-02-12T17:14:43.873Z,94.20
2019-02-12T17:17:14.013Z,94.30
2019-02-12T17:19:44.219Z,94.20
2019-02-12T17:22:14.349Z,94.70
2019-02-12T17:24:44.574Z,94.70
2019-02-12T17:27:14.871Z,94.80
2019-02-12T17:29:44.997Z,95.00
2019-02-12T17:32:15.273Z,94.80
2019-02-12T17:34:45.494Z,94.60
2019-02-12T17:37:15.726Z,95.10
2019-02-12T17:39:46.122Z,95.00
2019-02-12T17:42:16.282Z,95.20
2019-02-12T17:44:46.697Z,95.20
2019-02-12T17:47:16.915Z,95.30
2019-02-12T17:49:47.071Z,95.00
2019-02-12T17:52:17.155Z,95.10
2019-02-12T17:54:47.223Z,95.30
2019-02-12T17:57:17.389Z,95.20
2019-02-12T17:59:47.613Z,95.20
2019-02-12T18:02:17.928Z,95.40
2019-02-12T18:04:48.375Z,95.50
2019-02-12T18:07:19.663Z,95.80
2019-02-12T18:09:49.897Z,95.90
2019-02-12T18:12:20.166Z,95.90
2019-02-12T18:14:50.263Z,96.20
2019-02-12T18:17:20.545Z,96.30
2019-02-12T18:19:50.871Z,96.50
2019-02-12T18:22:21.005Z,96.70
2019-02-12T18:24:51.158Z,96.90
2019-02-12T18:27:21.307Z,96.90
2019-02-12T18:29:51.538Z,97.10
2019-02-12T18:32:21.830Z,97.20
2019-02-12T18:34:52.027Z,97.30
2019-02-12T18:37:22.301Z,97.80
2019-02-12T18:39:52.458Z,97.60
2019-02-12T18:42:22.641Z,97.70
2019-02-12T18:44:52.889Z,97.80
2019-02-12T18:47:23.188Z,98.30
2019-02-12T18:49:53.457Z,98.00
2019-02-12T18:52:24.024Z,98.10
2019-02-12T18:54:54.255Z,98.20
2019-02-12T18:57:24.551Z,98.40
2019-02-12T18:59:54.707Z,98.50
2019-02-12T19:02:26.174Z,98.60
2019-02-12T19:04:56.556Z,98.80
2019-02-12T19:07:26.692Z,99.20
2019-02-12T19:09:56.958Z,99.20
2019-02-12T19:12:27.187Z,99.40
2019-02-12T19:14:57.680Z,99.30
2019-02-12T19:17:27.889Z,99.40
2019-02-12T19:19:58.215Z,99.70
2019-02-12T19:22:28.465Z,99.70
2019-02-12T19:24:58.644Z,99.80
2019-02-12T19:27:28.871Z,99.90
2019-02-12T19:29:59.321Z,99.90
2019-02-12T19:32:29.474Z,99.90
2019-02-12T19:34:59.718Z,99.90
2019-02-12T19:37:30.761Z,99.90
2019-02-12T19:40:01.014Z,99.90
2019-02-12T19:42:31.199Z,99.90
2019-02-12T19:45:01.374Z,99.90
2019-02-12T19:47:31.879Z,99.90
2019-02-12T19:50:02.100Z,99.90
2019-02-12T19:52:32.874Z,99.90
2019-02-12T19:55:03.046Z,99.90
2019-02-12T19:57:33.389Z,99.90
2019-02-12T20:00:03.913Z,99.90
2019-02-12T20:02:34.178Z,99.90
2019-02-12T20:05:06.534Z,99.90
2019-02-12T20:07:36.785Z,99.90
2019-02-12T20:10:07.858Z,99.90
2019-02-12T20:12:38.162Z,99.90
2019-02-12T20:15:09.681Z,99.90
2019-02-12T20:17:39.990Z,99.90
2019-02-12T20:20:11.961Z,99.90
2019-02-12T20:22:42.256Z,99.90
2019-02-12T20:25:12.568Z,99.90
2019-02-12T20:27:42.901Z,99.90
2019-02-12T20:30:16.479Z,99.90
2019-02-12T20:32:46.813Z,99.90
2019-02-12T20:35:17.126Z,99.90
2019-02-12T20:37:47.474Z,99.90
2019-02-12T20:40:17.714Z,99.90
2019-02-12T20:42:48.078Z,99.90
2019-02-12T20:45:18.250Z,99.90
2019-02-12T20:47:49.830Z,99.90
2019-02-12T20:50:20.064Z,99.90
2019-02-12T20:52:50.230Z,99.90
2019-02-12T20:55:22.927Z,99.90
2019-02-12T20:57:53.226Z,99.90
2019-02-12T21:00:23.429Z,99.90
2019-02-12T21:02:53.754Z,99.90
2019-02-12T21:05:24.112Z,99.90
2019-02-12T21:07:54.286Z,99.90
2019-02-12T21:10:24.582Z,99.90
2019-02-12T21:12:54.725Z,99.90
2019-02-12T21:15:25.026Z,99.90
2019-02-12T21:17:55.110Z,99.90
2019-02-12T21:20:25.390Z,99.90
2019-02-12T21:22:58.680Z,99.90
2019-02-12T21:25:28.917Z,99.90
2019-02-12T21:27:59.228Z,99.90
2019-02-12T21:30:29.383Z,99.90
2019-02-12T21:32:59.598Z,99.90
2019-02-12T21:35:30.202Z,99.90
2019-02-12T21:38:01.098Z,99.90
2019-02-12T21:40:31.311Z,99.90
2019-02-12T21:43:01.686Z,99.90
2019-02-12T21:45:45.504Z,99.90
2019-02-12T21:48:15.635Z,99.90
2019-02-12T21:50:45.998Z,99.90
2019-02-12T21:53:16.294Z,99.90
2019-02-12T21:55:46.441Z,99.90
2019-02-12T21:58:16.506Z,99.90
2019-02-12T22:00:46.724Z,99.90
2019-02-12T22:03:17.017Z,99.90
2019-02-12T22:05:47.272Z,99.90
2019-02-12T22:08:25.934Z,99.90
2019-02-12T22:10:58.388Z,99.90
2019-02-12T22:13:30.632Z,99.90
2019-02-12T22:16:00.876Z,99.90
2019-02-12T22:18:31.179Z,99.90
2019-02-12T22:21:01.489Z,99.90
2019-02-12T22:23:31.675Z,99.90
2019-02-12T22:26:01.974Z,99.90
2019-02-12T22:28:32.473Z,99.90
2019-02-12T22:31:02.909Z,99.90
2019-02-12T22:33:33.137Z,99.90
2019-02-12T22:36:07.027Z,99.90
2019-02-12T22:38:37.158Z,99.90
2019-02-12T22:41:08.199Z,99.90
2019-02-12T22:43:38.497Z,99.90
2019-02-12T22:46:08.594Z,99.90
2019-02-12T22:48:38.809Z,99.90
2019-02-12T22:51:08.905Z,99.90
2019-02-12T22:53:41.195Z,99.90
2019-02-12T22:56:11.474Z,99.90
2019-02-12T22:58:41.660Z,99.90
2019-02-12T23:01:12.175Z,99.90
2019-02-12T23:03:43.478Z,99.90
2019-02-12T23:06:13.743Z,99.90
2019-02-12T23:08:43.948Z,99.90
2019-02-12T23:11:14.224Z,99.90
2019-02-12T23:13:44.394Z,99.90
2019-02-12T23:16:14.549Z,99.90
2019-02-12T23:18:44.774Z,99.90
2019-02-12T23:21:15.040Z,99.90
2019-02-12T23:23:45.246Z,99.90
2019-02-12T23:26:15.514Z,99.90
2019-02-12T23:28:45.789Z,99.90
2019-02-12T23:31:15.955Z,99.90
2019-02-12T23:33:46.082Z,99.90
2019-02-12T23:36:16.337Z,99.90
2019-02-12T23:38:46.520Z,99.90
2019-02-12T23:41:16.646Z,99.90
2019-02-12T23:43:46.769Z,99.90
2019-02-12T23:46:17.000Z,99.90
2019-02-12T23:48:47.164Z,99.90
2019-02-12T23:51:17.233Z,99.90
2019-02-12T23:53:47.450Z,99.90
2019-02-12T23:56:17.549Z,99.90
2019-02-12T23:58:47.763Z,99.90
